createdAt,value
2018-05-11T00:00:10.282Z,0
2018-05-11T00:01:20.379Z,0
2018-05-11T00:02:30.198Z,0
2018-05-11T00:03:40.282Z,0
2018-05-11T00:04:50.355Z,0
2018-05-11T00:06:00.522Z,0
2018-05-11T00:07:10.337Z,0
2018-05-11T00:08:20.415Z,0
2018-05-11T00:09:30.507Z,0
2018-05-11T00:10:40.572Z,0
2018-05-11T00:11:50.811Z,0
2018-05-11T00:13:01.074Z,0
2018-05-11T00:14:11.166Z,0
2018-05-11T00:15:21.244Z,0
2018-05-11T00:16:31.332Z,0
2018-05-11T00:17:41.400Z,0
2018-05-11T00:18:51.252Z,0
2018-05-11T00:20:01.335Z,0
2018-05-11T00:21:11.144Z,0
2018-05-11T00:22:20.942Z,0
2018-05-11T00:23:31.204Z,0
2018-05-11T00:24:41.463Z,0
2018-05-11T00:25:51.564Z,0
2018-05-11T00:27:01.123Z,0
2018-05-11T00:28:11.187Z,0
2018-05-11T00:29:21.281Z,0
2018-05-11T00:30:31.145Z,0
2018-05-11T00:31:41.247Z,0
2018-05-11T00:32:51.321Z,0
2018-05-11T00:34:01.401Z,0
2018-05-11T00:35:11.497Z,0
2018-05-11T00:36:21.321Z,0
2018-05-11T00:37:31.393Z,0
2018-05-11T00:38:41.223Z,0
2018-05-11T00:39:51.306Z,0
2018-05-11T00:41:01.401Z,0
2018-05-11T00:42:11.511Z,0
2018-05-11T00:43:21.064Z,0
2018-05-11T00:44:31.131Z,0
2018-05-11T00:45:40.946Z,0
2018-05-11T00:46:51.033Z,0
2018-05-11T00:48:01.109Z,0
2018-05-11T00:49:10.931Z,0
2018-05-11T00:50:20.998Z,0
2018-05-11T00:51:30.815Z,0
2018-05-11T00:52:40.904Z,0
2018-05-11T00:53:50.987Z,0
2018-05-11T00:55:01.058Z,0
2018-05-11T00:56:11.153Z,0
2018-05-11T00:57:21.228Z,0
2018-05-11T00:58:31.302Z,0
2018-05-11T00:59:41.385Z,0
2018-05-11T01:00:51.501Z,0
2018-05-11T01:02:01.592Z,0
2018-05-11T01:03:11.671Z,0
2018-05-11T01:04:21.785Z,0
2018-05-11T01:05:31.641Z,0
2018-05-11T01:06:41.701Z,0
2018-05-11T01:07:51.784Z,0
2018-05-11T01:09:01.602Z,0
2018-05-11T01:10:11.417Z,0
2018-05-11T01:11:21.498Z,0
2018-05-11T01:12:31.063Z,0
2018-05-11T01:13:41.157Z,0
2018-05-11T01:14:50.724Z,0
2018-05-11T01:16:00.821Z,0
2018-05-11T01:17:10.941Z,0
2018-05-11T01:18:21.026Z,0
2018-05-11T01:19:31.191Z,0
2018-05-11T01:20:41.267Z,0
2018-05-11T01:21:51.368Z,0
2018-05-11T01:23:01.197Z,0
2018-05-11T01:24:11.004Z,0
2018-05-11T01:25:21.087Z,0
2018-05-11T01:26:30.911Z,0
2018-05-11T01:27:41.001Z,0
2018-05-11T01:28:51.076Z,0
2018-05-11T01:30:01.144Z,0
2018-05-11T01:31:10.985Z,0
2018-05-11T01:32:20.812Z,0
2018-05-11T01:33:30.917Z,0
2018-05-11T01:34:41.009Z,0
2018-05-11T01:35:51.091Z,0
2018-05-11T01:37:01.163Z,0
2018-05-11T01:38:11.245Z,0
2018-05-11T01:39:21.325Z,0
2018-05-11T01:40:31.449Z,0
2018-05-11T01:41:41.539Z,0
2018-05-11T01:42:51.093Z,0
2018-05-11T01:44:00.655Z,0
2018-05-11T01:45:10.553Z,0
2018-05-11T01:46:20.725Z,0
2018-05-11T01:47:30.542Z,0
2018-05-11T01:48:40.610Z,0
2018-05-11T01:49:50.690Z,0
2018-05-11T01:51:00.759Z,0
2018-05-11T01:52:10.595Z,0
2018-05-11T01:53:20.410Z,0
2018-05-11T01:54:30.483Z,0
2018-05-11T01:55:40.565Z,0
2018-05-11T01:56:50.646Z,0
2018-05-11T01:58:00.720Z,0
2018-05-11T01:59:10.324Z,0
2018-05-11T02:00:19.913Z,0
2018-05-11T02:01:29.995Z,0
2018-05-11T02:02:40.067Z,0
2018-05-11T02:03:49.876Z,0
2018-05-11T02:04:59.955Z,0
2018-05-11T02:06:10.052Z,0
2018-05-11T02:07:20.131Z,0
2018-05-11T02:08:30.209Z,0
2018-05-11T02:09:40.344Z,0
2018-05-11T02:10:50.428Z,0
2018-05-11T02:12:00.285Z,0
2018-05-11T02:13:09.836Z,0
2018-05-11T02:14:19.912Z,0
2018-05-11T02:15:30.004Z,0
2018-05-11T02:16:39.843Z,0
2018-05-11T02:17:49.912Z,0
2018-05-11T02:18:59.706Z,0
2018-05-11T02:20:09.777Z,0
2018-05-11T02:21:19.640Z,0
2018-05-11T02:22:29.700Z,0
2018-05-11T02:23:39.514Z,0
2018-05-11T02:24:49.615Z,0
2018-05-11T02:26:00.097Z,0
2018-05-11T02:27:10.481Z,0
2018-05-11T02:28:20.563Z,0
2018-05-11T02:29:30.664Z,0
2018-05-11T02:30:40.755Z,0
2018-05-11T02:31:50.867Z,0
2018-05-11T02:33:00.946Z,0
2018-05-11T02:34:11.045Z,0
2018-05-11T02:35:21.261Z,0
2018-05-11T02:36:31.105Z,0
2018-05-11T02:37:41.187Z,0
2018-05-11T02:38:51.269Z,0
2018-05-11T02:40:01.101Z,0
2018-05-11T02:41:11.202Z,0
2018-05-11T02:42:21.558Z,0
2018-05-11T02:43:31.641Z,0
2018-05-11T02:44:41.785Z,0
2018-05-11T02:45:51.602Z,0
2018-05-11T02:47:01.771Z,0
2018-05-11T02:48:11.581Z,0
2018-05-11T02:49:21.670Z,4
2018-05-11T02:50:31.811Z,4
2018-05-11T02:51:41.668Z,0
2018-05-11T02:52:51.479Z,0
2018-05-11T02:54:01.559Z,4
2018-05-11T02:55:11.667Z,0
2018-05-11T02:56:21.810Z,4
2018-05-11T02:57:31.896Z,4
2018-05-11T02:58:41.714Z,4
2018-05-11T02:59:51.549Z,8
2018-05-11T03:01:01.635Z,8
2018-05-11T03:02:11.449Z,4
2018-05-11T03:34:51.603Z,200
2018-05-11T03:36:01.402Z,224
2018-05-11T03:37:10.951Z,248
2018-05-11T03:38:21.033Z,280
2018-05-11T03:39:31.104Z,320
2018-05-11T03:40:41.181Z,360
2018-05-11T03:41:51.003Z,396
2018-05-11T03:43:01.062Z,428
2018-05-11T03:44:11.126Z,472
2018-05-11T03:45:21.187Z,524
2018-05-11T03:46:31.258Z,576
2018-05-11T03:47:41.355Z,628
2018-05-11T03:48:51.462Z,680
2018-05-11T03:50:01.548Z,732
2018-05-11T03:51:11.353Z,764
2018-05-11T03:52:21.423Z,808
2018-05-11T03:53:30.976Z,852
2018-05-11T03:54:40.536Z,900
2018-05-11T03:55:50.635Z,948
2018-05-11T03:57:00.729Z,988
2018-05-11T03:58:10.821Z,1016
2018-05-11T03:59:20.907Z,1044
2018-05-11T04:00:30.969Z,1060
2018-05-11T04:01:40.802Z,1080
2018-05-11T04:02:50.874Z,1104
2018-05-11T04:04:00.980Z,1132
2018-05-11T04:05:10.790Z,1168
2018-05-11T04:06:20.886Z,1200
2018-05-11T04:07:30.718Z,1228
2018-05-11T04:08:40.794Z,1272
2018-05-11T04:09:50.618Z,1312
2018-05-11T04:11:00.433Z,1344
2018-05-11T04:12:10.509Z,1372
2018-05-11T04:13:20.489Z,1404
2018-05-11T04:14:30.306Z,1440
2018-05-11T04:15:40.176Z,1472
2018-05-11T04:16:50.257Z,1512
2018-05-11T04:18:00.342Z,1560
2018-05-11T04:19:10.155Z,1616
2018-05-11T04:20:19.955Z,1664
2018-05-11T04:21:30.046Z,1700
2018-05-11T04:22:40.122Z,1716
2018-05-11T04:23:50.243Z,1712
2018-05-11T04:25:00.347Z,1696
2018-05-11T04:26:10.197Z,1684
2018-05-11T04:27:20.280Z,1676
2018-05-11T04:28:30.368Z,1672
2018-05-11T04:29:39.902Z,1668
2018-05-11T04:30:49.985Z,1676
2018-05-11T04:32:00.069Z,1696
2018-05-11T04:33:10.173Z,1724
2018-05-11T04:34:20.300Z,1784
2018-05-11T04:35:30.123Z,1872
2018-05-11T04:36:40.223Z,1968
2018-05-11T04:37:50.315Z,2068
2018-05-11T04:39:00.153Z,2200
2018-05-11T04:40:10.250Z,2304
2018-05-11T04:41:20.335Z,2456
2018-05-11T04:42:29.898Z,2808
2018-05-11T04:43:39.979Z,3372
2018-05-11T04:44:49.819Z,4536
2018-05-11T04:45:59.914Z,7908
2018-05-11T04:47:10.004Z,9536
2018-05-11T04:48:20.084Z,10416
2018-05-11T04:49:29.899Z,10136
2018-05-11T04:50:39.988Z,9588
2018-05-11T04:51:50.074Z,9584
2018-05-11T04:52:59.903Z,10248
2018-05-11T04:54:09.974Z,10152
2018-05-11T04:55:19.783Z,9596
2018-05-11T04:56:29.849Z,9188
2018-05-11T04:57:39.926Z,8308
2018-05-11T04:58:49.995Z,9840
2018-05-11T05:00:00.082Z,9952
2018-05-11T05:01:09.915Z,9632
2018-05-11T05:02:20.022Z,9300
2018-05-11T05:03:30.126Z,9272
2018-05-11T05:04:40.291Z,9624
2018-05-11T05:05:50.150Z,9400
2018-05-11T05:06:59.964Z,9268
2018-05-11T05:08:10.090Z,9800
2018-05-11T05:09:20.168Z,10732
2018-05-11T05:10:29.989Z,10248
2018-05-11T05:11:40.303Z,9364
2018-05-11T05:12:50.396Z,9528
2018-05-11T05:14:00.480Z,9316
2018-05-11T05:15:10.556Z,10128
2018-05-11T05:16:20.124Z,8896
2018-05-11T05:17:30.222Z,6568
2018-05-11T05:18:40.305Z,6148
2018-05-11T05:19:50.174Z,6284
2018-05-11T05:21:00.253Z,5416
2018-05-11T05:22:09.806Z,4960
2018-05-11T05:23:19.904Z,4640
2018-05-11T05:24:29.470Z,4356
2018-05-11T05:25:39.313Z,3860
2018-05-11T05:26:49.148Z,3620
2018-05-11T05:27:58.975Z,3456
2018-05-11T05:29:09.131Z,3384
2018-05-11T05:30:18.968Z,3352
2018-05-11T05:31:28.851Z,3352
2018-05-11T05:32:38.948Z,3368
2018-05-11T05:33:48.756Z,3376
2018-05-11T05:34:58.840Z,3400
2018-05-11T05:36:08.679Z,3436
2018-05-11T05:37:18.763Z,3452
2018-05-11T05:38:28.566Z,3476
2018-05-11T05:39:38.646Z,3548
2018-05-11T05:40:48.748Z,3632
2018-05-11T05:41:58.860Z,3700
2018-05-11T05:43:08.960Z,3764
2018-05-11T05:44:19.073Z,3816
2018-05-11T05:45:29.142Z,3904
2018-05-11T05:46:39.232Z,4012
2018-05-11T05:47:48.798Z,4200
2018-05-11T05:48:58.890Z,4408
2018-05-11T05:50:08.974Z,4596
2018-05-11T05:51:19.059Z,4800
2018-05-11T05:52:28.881Z,5396
2018-05-11T05:53:38.975Z,5432
2018-05-11T05:54:48.536Z,5160
2018-05-11T05:55:58.106Z,5364
2018-05-11T05:57:08.188Z,5372
2018-05-11T05:58:18.288Z,5732
2018-05-11T05:59:27.832Z,5708
2018-05-11T06:00:37.930Z,5540
2018-05-11T06:01:48.017Z,5632
2018-05-11T06:02:58.096Z,5848
2018-05-11T06:04:08.199Z,5868
2018-05-11T06:05:18.020Z,5708
2018-05-11T06:06:28.153Z,5488
2018-05-11T06:07:38.245Z,5620
2018-05-11T06:08:48.058Z,5512
2018-05-11T06:09:57.870Z,5196
2018-05-11T06:11:07.436Z,5352
2018-05-11T06:12:17.539Z,5700
2018-05-11T06:13:27.339Z,5848
2018-05-11T06:14:36.905Z,6164
2018-05-11T06:15:47.250Z,5968
2018-05-11T06:16:57.071Z,6032
2018-05-11T06:18:07.197Z,6108
2018-05-11T06:19:17.272Z,6068
2018-05-11T06:20:27.084Z,6052
2018-05-11T06:21:36.908Z,5952
2018-05-11T06:22:46.715Z,5976
2018-05-11T06:23:56.547Z,5956
2018-05-11T06:25:06.634Z,5980
2018-05-11T06:26:16.498Z,5988
2018-05-11T06:27:26.668Z,6012
2018-05-11T06:28:36.746Z,5968
2018-05-11T06:29:46.892Z,6000
2018-05-11T06:30:56.471Z,5968
2018-05-11T06:32:06.561Z,5732
2018-05-11T06:33:16.646Z,5508
2018-05-11T06:34:26.907Z,5448
2018-05-11T06:35:37.034Z,5348
2018-05-11T06:36:47.119Z,5684
2018-05-11T06:37:56.944Z,6040
2018-05-11T06:39:07.035Z,6496
2018-05-11T06:40:17.125Z,6604
2018-05-11T06:41:27.235Z,6604
2018-05-11T06:42:37.330Z,6604
2018-05-11T06:43:47.516Z,6520
2018-05-11T06:44:57.381Z,6416
2018-05-11T06:46:07.948Z,6280
2018-05-11T06:47:17.687Z,6268
2018-05-11T06:48:27.497Z,6020
2018-05-11T06:49:37.572Z,5724
2018-05-11T06:50:47.380Z,5556
2018-05-11T06:51:57.464Z,5240
2018-05-11T06:53:07.583Z,5452
2018-05-11T06:54:17.667Z,5476
2018-05-11T06:55:27.765Z,5484
2018-05-11T06:56:37.865Z,5492
2018-05-11T06:57:47.772Z,5512
2018-05-11T06:58:57.908Z,5568
2018-05-11T07:00:07.977Z,5668
2018-05-11T07:01:17.800Z,5728
2018-05-11T07:02:27.906Z,5768
2018-05-11T07:03:38.003Z,5876
2018-05-11T07:04:48.083Z,5512
2018-05-11T07:05:58.186Z,5076
2018-05-11T07:07:08.291Z,5364
2018-05-11T07:08:18.379Z,5064
2018-05-11T07:09:28.197Z,5132
2018-05-11T07:10:38.025Z,5432
2018-05-11T07:11:48.101Z,5592
2018-05-11T07:12:58.186Z,5088
2018-05-11T07:14:08.258Z,5860
2018-05-11T07:15:18.342Z,5436
2018-05-11T07:16:28.420Z,5344
2018-05-11T07:17:38.224Z,5812
2018-05-11T07:18:48.320Z,6668
2018-05-11T07:19:58.421Z,6172
2018-05-11T07:21:08.498Z,6392
2018-05-11T07:22:18.567Z,5852
2018-05-11T07:23:28.652Z,5988
2018-05-11T07:24:38.717Z,6388
2018-05-11T07:25:48.765Z,6064
2018-05-11T07:26:58.777Z,6120
2018-05-11T07:28:08.614Z,6488
2018-05-11T07:29:18.784Z,6672
2018-05-11T07:30:28.362Z,7448
2018-05-11T07:31:37.927Z,7644
2018-05-11T07:32:47.766Z,6780
2018-05-11T07:33:57.632Z,6676
2018-05-11T07:35:07.921Z,6752
2018-05-11T07:36:18.005Z,7052
2018-05-11T07:37:27.560Z,7188
2018-05-11T07:38:37.636Z,7400
2018-05-11T07:39:47.785Z,7016
2018-05-11T07:40:57.877Z,7288
2018-05-11T07:42:07.948Z,5796
2018-05-11T07:43:17.871Z,5840
2018-05-11T07:44:28.093Z,5736
2018-05-11T07:45:37.649Z,5168
2018-05-11T07:46:47.471Z,4956
2018-05-11T07:47:57.297Z,4764
2018-05-11T07:49:07.403Z,4608
2018-05-11T07:50:17.484Z,4512
2018-05-11T07:51:27.719Z,4504
2018-05-11T07:52:37.594Z,4496
2018-05-11T07:53:47.416Z,4540
2018-05-11T07:54:57.246Z,4568
2018-05-11T07:56:06.836Z,4620
2018-05-11T07:57:16.941Z,4664
2018-05-11T07:58:26.758Z,4680
2018-05-11T07:59:36.857Z,4672
2018-05-11T08:00:46.966Z,4680
2018-05-11T08:01:57.060Z,4720
2018-05-11T08:03:07.158Z,4808
2018-05-11T08:04:17.260Z,4896
2018-05-11T08:05:27.345Z,4972
2018-05-11T08:06:37.157Z,5028
2018-05-11T08:07:46.971Z,5112
2018-05-11T08:08:57.088Z,5176
2018-05-11T08:10:06.917Z,5232
2018-05-11T08:11:16.713Z,5300
2018-05-11T08:12:26.874Z,5360
2018-05-11T08:13:37.001Z,5440
2018-05-11T08:14:47.074Z,5524
2018-05-11T08:15:56.891Z,5644
2018-05-11T08:17:06.987Z,5796
2018-05-11T08:18:16.811Z,5896
2018-05-11T08:19:26.369Z,5992
2018-05-11T08:20:36.464Z,6008
2018-05-11T08:21:46.655Z,5988
2018-05-11T08:22:56.490Z,5944
2018-05-11T08:24:06.569Z,5864
2018-05-11T08:25:16.404Z,5752
2018-05-11T08:26:26.496Z,5664
2018-05-11T08:27:36.580Z,5588
2018-05-11T08:28:46.664Z,5524
2018-05-11T08:29:56.758Z,5476
2018-05-11T08:31:06.577Z,5420
2018-05-11T08:32:16.393Z,5352
2018-05-11T08:33:26.221Z,5320
2018-05-11T08:34:36.293Z,5268
2018-05-11T08:35:46.212Z,5228
2018-05-11T08:36:56.208Z,5200
2018-05-11T08:38:05.503Z,5168
2018-05-11T08:39:15.384Z,5148
2018-05-11T08:40:25.216Z,5136
2018-05-11T08:41:35.324Z,5144
2018-05-11T08:42:45.399Z,5164
2018-05-11T08:43:55.510Z,5212
2018-05-11T08:45:05.674Z,5308
2018-05-11T08:46:15.749Z,5452
2018-05-11T08:47:25.887Z,5620
2018-05-11T08:48:35.955Z,5784
2018-05-11T08:49:46.050Z,5944
2018-05-11T08:50:56.148Z,6116
2018-05-11T08:52:06.290Z,6280
2018-05-11T08:53:16.381Z,6460
2018-05-11T08:54:26.469Z,6656
2018-05-11T08:55:36.556Z,6844
2018-05-11T08:56:46.432Z,7020
2018-05-11T08:57:56.273Z,7212
2018-05-11T08:59:05.847Z,7444
2018-05-11T09:00:15.684Z,7796
2018-05-11T09:01:25.793Z,8564
2018-05-11T09:02:35.864Z,9728
2018-05-11T09:03:45.710Z,8468
2018-05-11T09:04:55.793Z,8652
2018-05-11T09:06:05.900Z,7952
2018-05-11T09:07:15.980Z,7980
2018-05-11T09:08:26.097Z,7760
2018-05-11T09:09:35.929Z,7780
2018-05-11T09:10:46.027Z,7820
2018-05-11T09:11:56.136Z,7908
2018-05-11T09:13:06.235Z,7928
2018-05-11T09:14:16.334Z,7976
2018-05-11T09:15:26.163Z,7984
2018-05-11T09:16:36.011Z,8144
2018-05-11T09:17:45.840Z,8352
2018-05-11T09:18:55.943Z,8844
2018-05-11T09:20:06.023Z,9116
2018-05-11T09:21:15.585Z,8976
2018-05-11T09:22:25.755Z,9008
2018-05-11T09:23:35.832Z,8792
2018-05-11T09:24:45.949Z,10320
2018-05-11T09:25:56.033Z,10704
2018-05-11T09:27:05.853Z,9812
2018-05-11T09:28:15.949Z,9340
2018-05-11T09:29:25.769Z,10092
2018-05-11T09:30:35.843Z,7924
2018-05-11T09:31:45.756Z,7452
2018-05-11T09:32:56.046Z,7100
2018-05-11T09:34:06.129Z,6872
2018-05-11T09:35:16.219Z,6728
2018-05-11T09:36:26.028Z,6624
2018-05-11T09:37:36.112Z,6692
2018-05-11T09:38:45.940Z,6748
2018-05-11T09:39:56.592Z,6480
2018-05-11T09:41:06.692Z,6240
2018-05-11T09:42:16.786Z,6032
2018-05-11T09:43:26.873Z,5888
2018-05-11T09:44:36.957Z,5800
2018-05-11T09:45:47.047Z,5760
2018-05-11T09:46:57.181Z,5772
2018-05-11T09:48:07.269Z,5836
2018-05-11T09:49:17.358Z,5980
2018-05-11T09:50:27.556Z,6168
2018-05-11T09:51:37.112Z,6408
2018-05-11T09:52:46.995Z,6624
2018-05-11T09:53:57.068Z,6760
2018-05-11T09:55:07.110Z,6848
2018-05-11T09:56:17.519Z,6920
2018-05-11T09:57:27.584Z,6992
2018-05-11T09:58:37.412Z,7020
2018-05-11T09:59:46.968Z,7000
2018-05-11T10:00:57.370Z,6948
2018-05-11T10:02:07.469Z,6856
2018-05-11T10:03:17.538Z,6748
2018-05-11T10:04:27.370Z,6652
2018-05-11T10:05:37.446Z,6540
2018-05-11T10:06:47.526Z,6408
2018-05-11T10:07:57.483Z,6256
2018-05-11T10:09:07.578Z,6124
2018-05-11T10:10:17.197Z,6008
2018-05-11T10:11:27.276Z,5940
2018-05-11T10:12:37.363Z,5908
2018-05-11T10:13:47.614Z,5900
2018-05-11T10:14:57.554Z,5964
2018-05-11T10:16:07.470Z,6096
2018-05-11T10:17:17.557Z,6280
2018-05-11T10:18:27.641Z,6568
2018-05-11T10:19:37.219Z,6628
2018-05-11T10:20:47.426Z,6800
2018-05-11T10:21:57.669Z,7152
2018-05-11T10:23:07.759Z,7316
2018-05-11T10:24:17.601Z,7468
2018-05-11T10:25:27.688Z,7712
2018-05-11T10:26:37.774Z,7848
2018-05-11T10:27:47.339Z,8120
2018-05-11T10:28:57.907Z,8076
2018-05-11T10:30:07.757Z,8024
2018-05-11T10:31:17.843Z,8144
2018-05-11T10:32:27.731Z,8016
2018-05-11T10:33:37.813Z,8004
2018-05-11T10:34:47.914Z,7992
2018-05-11T10:35:58.012Z,7988
2018-05-11T10:37:08.107Z,8016
2018-05-11T10:38:17.940Z,8048
2018-05-11T10:39:28.075Z,8092
2018-05-11T10:40:38.187Z,8208
2018-05-11T10:41:48.267Z,8584
2018-05-11T10:42:58.392Z,8532
2018-05-11T10:44:08.226Z,8804
2018-05-11T10:45:18.317Z,9056
2018-05-11T10:46:28.675Z,9108
2018-05-11T10:47:38.773Z,9268
2018-05-11T10:48:49.326Z,9496
2018-05-11T10:49:59.530Z,9088
2018-05-11T10:51:09.690Z,8872
2018-05-11T10:52:19.781Z,8800
2018-05-11T10:53:29.873Z,8528
2018-05-11T10:54:39.721Z,8444
2018-05-11T10:55:49.786Z,8496
2018-05-11T10:56:59.919Z,8524
2018-05-11T10:58:10.014Z,8580
2018-05-11T10:59:19.840Z,8580
2018-05-11T11:00:29.928Z,8800
2018-05-11T11:01:39.758Z,8896
2018-05-11T11:02:49.943Z,9112
2018-05-11T11:03:59.506Z,9268
2018-05-11T11:05:09.604Z,10300
2018-05-11T11:06:19.676Z,9188
2018-05-11T11:07:29.748Z,10856
2018-05-11T11:08:39.857Z,11236
2018-05-11T11:09:49.700Z,10812
2018-05-11T11:10:59.792Z,9684
2018-05-11T11:12:09.619Z,9720
2018-05-11T11:13:19.432Z,11136
2018-05-11T11:14:29.599Z,10436
2018-05-11T11:15:39.672Z,11924
2018-05-11T11:16:49.759Z,11780
2018-05-11T11:17:59.843Z,11400
2018-05-11T11:19:09.927Z,10660
2018-05-11T11:20:20.071Z,9892
2018-05-11T11:21:30.436Z,11372
2018-05-11T11:22:40.515Z,11348
2018-05-11T11:23:50.606Z,11396
2018-05-11T11:25:00.714Z,11484
2018-05-11T11:26:11.077Z,11268
2018-05-11T11:27:20.894Z,11172
2018-05-11T11:28:30.985Z,10988
2018-05-11T11:29:41.111Z,10708
2018-05-11T11:30:51.199Z,10596
2018-05-11T11:32:01.351Z,10228
2018-05-11T11:33:11.458Z,9940
2018-05-11T11:34:21.727Z,9836
2018-05-11T11:35:31.897Z,9888
2018-05-11T11:36:42.008Z,9588
2018-05-11T11:37:52.115Z,9320
2018-05-11T11:39:02.237Z,8404
2018-05-11T11:40:12.324Z,8148
2018-05-11T11:41:22.443Z,9284
2018-05-11T11:42:32.528Z,6448
2018-05-11T11:43:42.101Z,8896
2018-05-11T11:44:52.200Z,8944
2018-05-11T11:46:02.322Z,8780
2018-05-11T11:47:12.168Z,8680
2018-05-11T11:48:21.997Z,8516
2018-05-11T11:49:31.840Z,8176
2018-05-11T11:50:41.929Z,7948
2018-05-11T11:51:52.113Z,7996
2018-05-11T11:53:02.229Z,7996
2018-05-11T11:54:12.407Z,7876
2018-05-11T11:55:22.507Z,7748
2018-05-11T11:56:32.939Z,7788
2018-05-11T11:57:43.066Z,7784
2018-05-11T11:58:52.974Z,7748
2018-05-11T12:00:03.180Z,7576
2018-05-11T12:01:12.806Z,7632
2018-05-11T12:02:22.879Z,7620
2018-05-11T12:03:32.970Z,7636
2018-05-11T12:04:43.084Z,7596
2018-05-11T12:05:53.187Z,7516
2018-05-11T12:07:03.041Z,7736
2018-05-11T12:08:13.135Z,7708
2018-05-11T12:09:23.246Z,7228
2018-05-11T12:10:33.089Z,7220
2018-05-11T12:11:43.611Z,6868
2018-05-11T12:12:53.768Z,7176
2018-05-11T12:14:03.864Z,7472
2018-05-11T12:15:13.711Z,7664
2018-05-11T12:16:23.799Z,7448
2018-05-11T12:17:33.895Z,7564
2018-05-11T12:18:43.978Z,7556
2018-05-11T12:19:54.100Z,7580
2018-05-11T12:21:04.037Z,7560
2018-05-11T12:31:37.639Z,6828
2018-05-11T12:32:47.474Z,4712
2018-05-11T12:33:57.570Z,7492
2018-05-11T12:35:07.741Z,7340
2018-05-11T12:36:17.570Z,7264
2018-05-11T12:37:27.447Z,7248
2018-05-11T12:38:37.548Z,7264
2018-05-11T12:39:47.681Z,7208
2018-05-11T12:40:58.573Z,7060
2018-05-11T12:42:09.504Z,6836
2018-05-11T12:43:19.708Z,6320
2018-05-11T12:44:30.054Z,6736
2018-05-11T12:45:40.503Z,6764
2018-05-11T12:46:51.118Z,6972
2018-05-11T12:48:01.795Z,7004
2018-05-11T12:49:12.041Z,6980
2018-05-11T12:50:22.420Z,7004
2018-05-11T12:51:32.555Z,6948
2018-05-11T12:52:42.998Z,6972
2018-05-11T12:53:53.742Z,6892
2018-05-11T12:55:04.400Z,6900
2018-05-11T12:56:14.758Z,6876
2018-05-11T12:57:25.836Z,6868
2018-05-11T12:58:36.528Z,6876
2018-05-11T12:59:46.893Z,6780
2018-05-11T13:00:57.071Z,6728
2018-05-11T13:02:07.434Z,6532
2018-05-11T13:03:17.544Z,5092
2018-05-11T13:04:27.643Z,5864
2018-05-11T13:05:37.722Z,6628
2018-05-11T13:06:47.955Z,6784
2018-05-11T13:07:58.063Z,6968
2018-05-11T13:09:08.187Z,6836
2018-05-11T13:10:18.284Z,7000
2018-05-11T13:11:28.385Z,6960
2018-05-11T13:12:38.538Z,6892
2018-05-11T13:13:48.373Z,6960
2018-05-11T13:14:58.201Z,6976
2018-05-11T13:16:07.771Z,6968
2018-05-11T13:17:18.153Z,7008
2018-05-11T13:18:27.986Z,7032
2018-05-11T13:19:37.799Z,6948
2018-05-11T13:20:48.147Z,6860
2018-05-11T13:21:58.612Z,6712
2018-05-11T13:23:08.457Z,6348
2018-05-11T13:24:18.356Z,4032
2018-05-11T13:25:28.464Z,4032
2018-05-11T13:26:38.284Z,4160
2018-05-11T13:27:48.381Z,5088
2018-05-11T13:28:58.212Z,5776
2018-05-11T13:30:08.088Z,6612
2018-05-11T13:31:18.201Z,6720
2018-05-11T13:32:28.295Z,6924
2018-05-11T13:33:38.398Z,6600
2018-05-11T13:34:48.479Z,6904
2018-05-11T13:35:58.569Z,6960
2018-05-11T13:37:08.669Z,6668
2018-05-11T13:38:18.504Z,4944
2018-05-11T13:39:28.633Z,4380
2018-05-11T13:40:38.461Z,4264
2018-05-11T13:41:48.575Z,4288
2018-05-11T13:42:58.688Z,4520
2018-05-11T13:44:08.776Z,6248
2018-05-11T13:45:18.900Z,5104
2018-05-11T13:46:28.759Z,4720
2018-05-11T13:47:39.096Z,4540
2018-05-11T13:48:49.203Z,4500
2018-05-11T13:49:59.314Z,4508
2018-05-11T13:51:09.426Z,4584
2018-05-11T13:52:19.260Z,4676
2018-05-11T13:53:29.355Z,4724
2018-05-11T13:54:38.922Z,5084
2018-05-11T13:55:49.008Z,4380
2018-05-11T13:56:58.852Z,4304
2018-05-11T13:58:08.681Z,4272
2018-05-11T13:59:18.797Z,4404
2018-05-11T14:00:28.878Z,5680
2018-05-11T14:01:38.981Z,6392
2018-05-11T14:02:48.805Z,6584
2018-05-11T14:03:58.904Z,6588
2018-05-11T14:05:09.053Z,6516
2018-05-11T14:06:18.893Z,6476
2018-05-11T14:07:28.994Z,6488
2018-05-11T14:08:38.577Z,6508
2018-05-11T14:09:48.409Z,6424
2018-05-11T14:10:58.629Z,6296
2018-05-11T14:12:08.801Z,5992
2018-05-11T14:13:18.885Z,4828
2018-05-11T14:14:28.984Z,3792
2018-05-11T14:15:39.082Z,3748
2018-05-11T14:16:49.241Z,5444
2018-05-11T14:17:59.643Z,5204
2018-05-11T14:19:09.731Z,4548
2018-05-11T14:20:19.832Z,3748
2018-05-11T14:21:29.931Z,4708
2018-05-11T14:22:40.090Z,5648
2018-05-11T14:23:50.202Z,5612
2018-05-11T14:25:00.534Z,5936
2018-05-11T14:26:10.928Z,5928
2018-05-11T14:27:21.036Z,6076
2018-05-11T14:28:31.140Z,6064
2018-05-11T14:29:40.978Z,6012
2018-05-11T14:30:51.093Z,5948
2018-05-11T14:32:01.097Z,5908
2018-05-11T14:33:11.334Z,5824
2018-05-11T14:34:21.411Z,5892
2018-05-11T14:35:31.303Z,5940
2018-05-11T14:36:41.417Z,5964
2018-05-11T14:37:51.507Z,5944
2018-05-11T14:39:01.623Z,5860
2018-05-11T14:40:11.715Z,5908
2018-05-11T14:41:21.548Z,5904
2018-05-11T14:42:31.642Z,5872
2018-05-11T14:43:41.765Z,5804
2018-05-11T14:44:51.846Z,5708
2018-05-11T14:46:01.978Z,5704
2018-05-11T14:47:12.094Z,5680
2018-05-11T14:48:22.221Z,5660
2018-05-11T14:49:32.335Z,5664
2018-05-11T14:50:42.549Z,5684
2018-05-11T14:51:52.692Z,5784
2018-05-11T14:53:02.835Z,5824
2018-05-11T14:54:12.657Z,5856
2018-05-11T14:55:22.757Z,5872
2018-05-11T14:56:32.866Z,5876
2018-05-11T14:57:43.040Z,5820
2018-05-11T14:58:52.904Z,5776
2018-05-11T15:00:02.739Z,5752
2018-05-11T15:01:12.547Z,5780
2018-05-11T15:02:22.380Z,5768
2018-05-11T15:03:32.517Z,5748
2018-05-11T15:04:42.636Z,5808
2018-05-11T15:05:52.551Z,5784
2018-05-11T15:07:02.413Z,5808
2018-05-11T15:08:12.239Z,5816
2018-05-11T15:09:22.340Z,5800
2018-05-11T15:10:32.436Z,5840
2018-05-11T15:11:42.544Z,5824
2018-05-11T15:12:52.393Z,5800
2018-05-11T15:14:02.491Z,5960
2018-05-11T15:15:12.106Z,5900
2018-05-11T15:16:21.947Z,5864
2018-05-11T15:17:31.801Z,5860
2018-05-11T15:18:41.913Z,5848
2018-05-11T15:19:52.035Z,5836
2018-05-11T15:21:02.147Z,5864
2018-05-11T15:22:12.256Z,5916
2018-05-11T15:23:22.112Z,6052
2018-05-11T15:24:31.970Z,6104
2018-05-11T15:25:41.798Z,6136
2018-05-11T15:26:51.934Z,6136
2018-05-11T15:28:02.019Z,6152
2018-05-11T15:29:11.891Z,6052
2018-05-11T15:30:21.456Z,6012
2018-05-11T15:31:31.298Z,5984
2018-05-11T15:32:41.407Z,5908
2018-05-11T15:33:51.259Z,5792
2018-05-11T15:35:00.841Z,5612
2018-05-11T15:36:10.974Z,4844
2018-05-11T15:37:21.043Z,4960
2018-05-11T15:38:31.131Z,4980
2018-05-11T15:39:40.982Z,4884
2018-05-11T15:40:50.802Z,5672
2018-05-11T15:42:00.912Z,5128
2018-05-11T15:43:10.750Z,5440
2018-05-11T15:44:21.026Z,4924
2018-05-11T15:45:30.872Z,5040
2018-05-11T15:46:40.714Z,4908
2018-05-11T15:47:50.580Z,4804
2018-05-11T15:49:00.662Z,4668
2018-05-11T15:50:10.826Z,4492
2018-05-11T15:51:20.929Z,4380
2018-05-11T15:52:31.045Z,4320
2018-05-11T15:53:41.171Z,4304
2018-05-11T15:54:51.263Z,4304
2018-05-11T15:56:01.417Z,4276
2018-05-11T15:57:11.271Z,4196
2018-05-11T15:58:21.399Z,4168
2018-05-11T15:59:31.488Z,4020
2018-05-11T16:00:41.342Z,3880
2018-05-11T16:01:50.927Z,3784
2018-05-11T16:03:00.999Z,3616
2018-05-11T16:04:11.095Z,3488
2018-05-11T16:05:21.189Z,3364
2018-05-11T16:06:31.048Z,3312
2018-05-11T16:07:41.143Z,3256
2018-05-11T16:08:51.257Z,2996
2018-05-11T16:10:01.363Z,2612
2018-05-11T16:11:11.259Z,2584
2018-05-11T16:12:21.370Z,2532
2018-05-11T16:13:31.512Z,2508
2018-05-11T16:14:41.619Z,2464
2018-05-11T16:15:51.716Z,2424
2018-05-11T16:17:01.340Z,2404
2018-05-11T16:18:11.184Z,2360
2018-05-11T16:19:21.271Z,2308
2018-05-11T16:20:31.200Z,2280
2018-05-11T16:21:41.430Z,2268
2018-05-11T16:22:51.617Z,2260
2018-05-11T16:24:01.796Z,2256
2018-05-11T16:25:11.895Z,2232
2018-05-11T16:26:22.036Z,2200
2018-05-11T16:27:32.134Z,2160
2018-05-11T16:28:42.224Z,2116
2018-05-11T16:29:52.325Z,2084